Terminal Aerodrome Forecast
Issued by NWS

Home | Current Version | Previous Version | Text Only | Print | Product List | Glossary On
Versions: 1 2 3 4 5 6 7 8 9 10 11 12 13 14 15 16 17
000
FTUS43 KLSX 221728
TAFCPS
TAF
KCPS 221728Z 2218/2318 24007KT P6SM SCT040 BKN150
     FM230100 VRB04KT P6SM BKN250
     FM231500 20006KT P6SM SCT040 BKN250=

USA.gov is the U.S. government's official web portal to all federal, state and local government web resources and services.